Time;durP1;ratioP1;P1;durP2;ratioP2;P2;SDS_P1;SDS_P2;PMS_P1;PMS_P2;Temp;Humidity;BMP_temperature;BMP_pressure;BME280_temperature;BME280_humidity;BME280_pressure;Samples;Min_cycle;Max_cycle;Signal;HPM_P1;HPM_P2
2023/06/19 00:00:32;;;;;;;;;;;;;;;;;;5027165;28;89306;-72
2023/06/19 00:02:57;;;;;;;;;;;;;;;;;;5027102;27;89502;-73
2023/06/19 00:05:25;;;;;;;;;;;;;;;;;;5026982;28;89764;-72
2023/06/19 00:07:51;;;;;;;;;;;;;;;;;;5026509;28;90555;-71
2023/06/19 00:10:16;;;;;;;;;;;;;;;;;;5026223;27;89809;-73
2023/06/19 00:12:41;;;;;;;;;;;;;;;;;;5024754;28;91236;-73
2023/06/19 00:15:09;;;;;;;;;;;;;;;;;;5026270;28;89320;-72
2023/06/19 00:17:37;;;;;;;;;;;;;;;;;;5026777;28;88984;-72
2023/06/19 00:20:02;;;;;;;;;;;;;;;;;;5029056;28;89612;-73
2023/06/19 00:22:28;;;;;;;;;;;;;;;;;;5025770;28;90779;-72
2023/06/19 00:24:53;;;;;;;;;;;;;;;;;;5026398;28;90322;-72
2023/06/19 00:27:18;;;;;;;;;;;;;;;;;;5026992;28;89677;-72
2023/06/19 00:29:43;;;;;;;;;;;;;;;;;;5026758;27;89652;-72
2023/06/19 00:32:08;;;;;;;;;;;;;;;;;;5025567;27;89200;-72
2023/06/19 00:34:34;;;;;;;;;;;;;;;;;;5016325;28;90635;-71
2023/06/19 00:36:59;;;;;;;;;;;;;;;;;;5026553;28;89625;-73
2023/06/19 00:39:27;;;;;;;;;;;;;;;;;;5026135;28;89227;-72
2023/06/19 00:41:53;;;;;;;;;;;;;;;;;;5029770;28;89993;-72
2023/06/19 00:44:18;;;;;;;;;;;;;;;;;;5026886;27;90041;-73
2023/06/19 00:46:43;;;;;;;;;;;;;;;;;;5025977;28;90296;-72
2023/06/19 00:49:09;;;;;;;;;;;;;;;;;;5026410;28;89066;-72
2023/06/19 00:51:34;;;;;;;;;;;;;;;;;;5026355;27;89679;-71
2023/06/19 00:53:59;;;;;;;;;;;;;;;;;;5025817;28;89287;-71
2023/06/19 00:56:25;;;;;;;;;;;;;;;;;;5026292;28;89004;-72
2023/06/19 00:58:52;;;;;;;;;;;;;;;;;;5025958;28;91756;-73
2023/06/19 01:01:18;;;;;;;;;;;;;;;;;;5029475;27;89649;-72
2023/06/19 01:03:43;;;;;;;;;;;;;;;;;;5026535;28;89828;-72
2023/06/19 01:06:10;;;;;;;;;;;;;;;;;;5026385;27;89793;-72
2023/06/19 01:08:38;;;;;;;;;;;;;;;;;;5026122;27;89013;-72
2023/06/19 01:11:04;;;;;;;;;;;;;;;;;;5024880;28;89665;-72
2023/06/19 01:13:29;;;;;;;;;;;;;;;;;;5026032;27;89426;-72
2023/06/19 01:15:55;;;;;;;;;;;;;;;;;;5022298;28;89237;-72
2023/06/19 01:18:20;;;;;;;;;;;;;;;;;;5026180;28;89837;-73
2023/06/19 01:20:45;;;;;;;;;;;;;;;;;;5025362;27;90313;-73
2023/06/19 01:23:11;;;;;;;;;;;;;;;;;;5027425;28;89506;-73
2023/06/19 01:25:36;;;;;;;;;;;;;;;;;;5024529;27;90672;-72
2023/06/19 01:28:09;;;;;;;;;;;;;;;;;;5025509;27;89324;-73
2023/06/19 01:30:34;;;;;;;;;;;;;;;;;;5023442;28;92239;-72
2023/06/19 01:33:14;;;;;;;;;;;;;;;;;;5025735;28;89415;-72
2023/06/19 01:35:41;;;;;;;;;;;;;;;;;;5024850;28;89174;-72
2023/06/19 01:38:07;;;;;;;;;;;;;;;;;;5025768;27;90232;-72
2023/06/19 01:40:33;;;;;;;;;;;;;;;;;;5028867;27;90339;-72
2023/06/19 01:43:00;;;;;;;;;;;;;;;;;;5020529;28;90544;-72
2023/06/19 01:45:27;;;;;;;;;;;;;;;;;;5028180;28;90722;-73
2023/06/19 01:47:52;;;;;;;;;;;;;;;;;;5025363;27;89212;-73
2023/06/19 01:50:18;;;;;;;;;;;;;;;;;;5025634;28;90235;-72
2023/06/19 01:52:44;;;;;;;;;;;;;;;;;;5024684;27;90864;-72
2023/06/19 01:55:10;;;;;;;;;;;;;;;;;;5025470;28;89297;-73
2023/06/19 01:57:36;;;;;;;;;;;;;;;;;;5024730;27;89631;-73
2023/06/19 02:00:01;;;;;;;;;;;;;;;;;;5025129;28;89347;-73
2023/06/19 02:02:26;;;;;;;;;;;;;;;;;;5017400;27;89599;-73
2023/06/19 02:04:52;;;;;;;;;;;;;;;;;;5026297;28;89622;-73
2023/06/19 02:07:17;;;;;;;;;;;;;;;;;;5028530;28;89532;-72
2023/06/19 02:09:42;;;;;;;;;;;;;;;;;;5025664;28;89766;-72
2023/06/19 02:12:08;;;;;;;;;;;;;;;;;;5024345;27;89582;-72
2023/06/19 02:14:33;;;;;;;;;;;;;;;;;;5025640;28;89431;-72
2023/06/19 02:16:58;;;;;;;;;;;;;;;;;;5025395;28;89667;-71
2023/06/19 02:19:23;;;;;;;;;;;;;;;;;;5026206;28;89614;-73
2023/06/19 02:21:49;;;;;;;;;;;;;;;;;;5023354;27;89471;-73
2023/06/19 02:24:14;;;;;;;;;;;;;;;;;;5025475;28;90217;-72
2023/06/19 02:26:39;;;;;;;;;;;;;;;;;;5024901;28;89618;-72
2023/06/19 02:29:04;;;;;;;;;;;;;;;;;;5027758;28;89570;-71
2023/06/19 02:31:30;;;;;;;;;;;;;;;;;;5029726;27;91905;-72
2023/06/19 02:33:55;;;;;;;;;;;;;;;;;;5024726;28;89305;-73
2023/06/19 02:36:20;;;;;;;;;;;;;;;;;;5018132;28;89816;-72
2023/06/19 02:38:46;;;;;;;;;;;;;;;;;;5027902;28;89901;-74
2023/06/19 02:41:12;;;;;;;;;;;;;;;;;;5028396;28;89447;-73
2023/06/19 02:43:37;;;;;;;;;;;;;;;;;;5028093;27;89698;-73
2023/06/19 02:46:02;;;;;;;;;;;;;;;;;;5028260;28;89311;-73
2023/06/19 02:48:28;;;;;;;;;;;;;;;;;;5026088;28;90375;-72
2023/06/19 02:50:53;;;;;;;;;;;;;;;;;;5030942;28;89907;-72
2023/06/19 02:53:18;;;;;;;;;;;;;;;;;;5028006;28;89190;-72
2023/06/19 02:55:43;;;;;;;;;;;;;;;;;;5028308;28;89573;-72
2023/06/19 02:58:08;;;;;;;;;;;;;;;;;;5028127;28;89414;-72
2023/06/19 03:00:34;;;;;;;;;;;;;;;;;;5027958;27;89007;-72
2023/06/19 03:02:59;;;;;;;;;;;;;;;;;;5027853;28;88975;-72
2023/06/19 03:05:26;;;;;;;;;;;;;;;;;;5024638;28;91207;-71
2023/06/19 03:07:52;;;;;;;;;;;;;;;;;;5028351;27;90065;-72
2023/06/19 03:10:17;;;;;;;;;;;;;;;;;;5030709;28;89567;-72
2023/06/19 03:12:42;;;;;;;;;;;;;;;;;;5027372;28;89696;-73
2023/06/19 03:15:08;;;;;;;;;;;;;;;;;;5027979;28;89696;-72
2023/06/19 03:17:33;;;;;;;;;;;;;;;;;;5027630;28;90007;-73
2023/06/19 03:19:58;;;;;;;;;;;;;;;;;;5027450;28;89876;-72
2023/06/19 03:22:23;;;;;;;;;;;;;;;;;;5018740;28;89651;-73
2023/06/19 03:24:48;;;;;;;;;;;;;;;;;;5027514;28;89910;-72
2023/06/19 03:27:14;;;;;;;;;;;;;;;;;;5022689;28;90272;-72
2023/06/19 03:29:39;;;;;;;;;;;;;;;;;;5027674;28;89442;-73
2023/06/19 03:32:04;;;;;;;;;;;;;;;;;;5025228;28;89636;-73
2023/06/19 03:34:30;;;;;;;;;;;;;;;;;;5027729;28;90007;-72
2023/06/19 03:36:55;;;;;;;;;;;;;;;;;;5024617;28;89536;-73
2023/06/19 03:39:20;;;;;;;;;;;;;;;;;;5027544;28;89231;-73
2023/06/19 03:41:45;;;;;;;;;;;;;;;;;;5027484;28;89663;-73
2023/06/19 03:44:11;;;;;;;;;;;;;;;;;;5027659;28;89881;-72
2023/06/19 03:46:36;;;;;;;;;;;;;;;;;;5026956;28;89206;-72
2023/06/19 03:49:03;;;;;;;;;;;;;;;;;;5024126;27;89657;-73
2023/06/19 03:51:28;;;;;;;;;;;;;;;;;;5025858;27;90431;-74
2023/06/19 03:53:54;;;;;;;;;;;;;;;;;;5030518;27;89073;-73
2023/06/19 03:56:19;;;;;;;;;;;;;;;;;;5027035;28;90295;-73
2023/06/19 03:58:44;;;;;;;;;;;;;;;;;;5027466;28;89038;-73
2023/06/19 04:01:09;;;;;;;;;;;;;;;;;;5025939;27;92697;-73
2023/06/19 04:03:34;;;;;;;;;;;;;;;;;;5027093;28;89401;-72
2023/06/19 04:06:00;;;;;;;;;;;;;;;;;;5027246;28;89914;-73
2023/06/19 04:08:25;;;;;;;;;;;;;;;;;;5027429;28;89885;-72
2023/06/19 04:10:50;;;;;;;;;;;;;;;;;;5027077;28;89292;-73
2023/06/19 04:13:15;;;;;;;;;;;;;;;;;;5026622;28;89081;-72
2023/06/19 04:15:43;;;;;;;;;;;;;;;;;;5030191;27;89646;-72
2023/06/19 04:18:09;;;;;;;;;;;;;;;;;;5026619;28;89530;-72
2023/06/19 04:20:34;;;;;;;;;;;;;;;;;;5014700;28;91350;-72
2023/06/19 04:22:59;;;;;;;;;;;;;;;;;;5022545;27;90295;-73
2023/06/19 04:25:24;;;;;;;;;;;;;;;;;;5020982;28;89673;-72
2023/06/19 04:27:50;;;;;;;;;;;;;;;;;;5019518;28;92849;-72
2023/06/19 04:30:15;;;;;;;;;;;;;;;;;;5019384;28;90130;-72
2023/06/19 04:32:40;;;;;;;;;;;;;;;;;;5022991;28;89950;-71
2023/06/19 04:35:09;;;;;;;;;;;;;;;;;;5018279;27;90905;-71
2023/06/19 04:37:34;;;;;;;;;;;;;;;;;;5022284;27;89918;-70
2023/06/19 04:40:00;;;;;;;;;;;;;;;;;;5023087;28;90046;-71
2023/06/19 04:42:26;;;;;;;;;;;;;;;;;;5019763;27;89694;-72
2023/06/19 04:44:51;;;;;;;;;;;;;;;;;;5022466;28;89580;-71
2023/06/19 04:47:17;;;;;;;;;;;;;;;;;;5018502;28;89793;-71
2023/06/19 04:49:43;;;;;;;;;;;;;;;;;;5024765;27;89319;-73
2023/06/19 04:52:08;;;;;;;;;;;;;;;;;;5025737;28;89544;-71
2023/06/19 04:54:33;;;;;;;;;;;;;;;;;;5023425;28;89713;-72
2023/06/19 04:56:58;;;;;;;;;;;;;;;;;;5024249;27;89549;-72
2023/06/19 04:59:24;;;;;;;;;;;;;;;;;;5026312;28;90481;-72
2023/06/19 05:01:51;;;;;;;;;;;;;;;;;;5022505;27;90382;-72
2023/06/19 05:04:16;;;;;;;;;;;;;;;;;;5023598;27;90466;-72
2023/06/19 05:06:42;;;;;;;;;;;;;;;;;;5022529;28;89880;-71
2023/06/19 05:09:07;;;;;;;;;;;;;;;;;;5020834;28;90289;-72
2023/06/19 05:11:33;;;;;;;;;;;;;;;;;;5022564;28;90185;-71
2023/06/19 05:13:58;;;;;;;;;;;;;;;;;;5021512;28;90735;-71
2023/06/19 05:16:24;;;;;;;;;;;;;;;;;;5019736;27;89851;-71
2023/06/19 05:18:51;;;;;;;;;;;;;;;;;;5021761;27;89255;-71
2023/06/19 05:21:16;;;;;;;;;;;;;;;;;;5024437;27;91260;-71
2023/06/19 05:23:41;;;;;;;;;;;;;;;;;;5025338;27;90535;-71
2023/06/19 05:26:07;;;;;;;;;;;;;;;;;;5021242;28;90585;-71
2023/06/19 05:28:32;;;;;;;;;;;;;;;;;;5022810;28;89511;-72
2023/06/19 05:30:57;;;;;;;;;;;;;;;;;;5023111;27;89027;-73
2023/06/19 05:33:23;;;;;;;;;;;;;;;;;;5017912;28;91572;-74
2023/06/19 05:35:52;;;;;;;;;;;;;;;;;;5015044;27;90563;-73
2023/06/19 05:38:17;;;;;;;;;;;;;;;;;;5020137;28;89928;-75
2023/06/19 05:40:42;;;;;;;;;;;;;;;;;;5027820;28;89522;-76
2023/06/19 05:43:08;;;;;;;;;;;;;;;;;;5024005;28;89163;-74
2023/06/19 05:45:33;;;;;;;;;;;;;;;;;;5024882;27;92336;-73
2023/06/19 05:47:58;;;;;;;;;;;;;;;;;;5023201;27;89800;-73
2023/06/19 05:50:23;;;;;;;;;;;;;;;;;;5022567;28;90201;-73
2023/06/19 05:52:49;;;;;;;;;;;;;;;;;;5023792;28;90102;-73
2023/06/19 05:55:14;;;;;;;;;;;;;;;;;;5019900;28;89745;-73
2023/06/19 05:57:39;;;;;;;;;;;;;;;;;;5020937;28;89535;-73
2023/06/19 06:00:06;;;;;;;;;;;;;;;;;;5019423;28;92686;-73
2023/06/19 06:02:31;;;;;;;;;;;;;;;;;;5021960;28;90382;-73
2023/06/19 06:04:56;;;;;;;;;;;;;;;;;;5036566;27;93201;-73
2023/06/19 06:07:21;;;;;;;;;;;;;;;;;;5022372;28;90222;-73
2023/06/19 06:09:47;;;;;;;;;;;;;;;;;;5020295;28;89963;-74
2023/06/19 06:12:12;;;;;;;;;;;;;;;;;;5021050;28;89561;-73
2023/06/19 06:14:37;;;;;;;;;;;;;;;;;;5023408;28;89772;-73
2023/06/19 06:17:05;;;;;;;;;;;;;;;;;;5027433;28;89151;-74
2023/06/19 06:19:30;;;;;;;;;;;;;;;;;;5027987;27;90311;-74
2023/06/19 06:21:55;;;;;;;;;;;;;;;;;;5023776;28;89785;-73
2023/06/19 06:24:20;;;;;;;;;;;;;;;;;;5026598;28;90556;-72
2023/06/19 06:26:45;;;;;;;;;;;;;;;;;;5020866;28;89698;-72
2023/06/19 06:29:10;;;;;;;;;;;;;;;;;;5025453;28;89370;-72
2023/06/19 06:31:37;;;;;;;;;;;;;;;;;;5023788;27;90106;-73
2023/06/19 06:34:03;;;;;;;;;;;;;;;;;;5041972;27;90783;-74
2023/06/19 06:36:29;;;;;;;;;;;;;;;;;;5025855;27;89533;-72
2023/06/19 06:38:54;;;;;;;;;;;;;;;;;;5024479;27;89810;-73
2023/06/19 06:41:19;;;;;;;;;;;;;;;;;;5024164;28;89337;-73
2023/06/19 06:43:44;;;;;;;;;;;;;;;;;;5026500;27;90108;-73
2023/06/19 06:46:10;;;;;;;;;;;;;;;;;;5028514;28;90822;-72
2023/06/19 06:48:35;;;;;;;;;;;;;;;;;;5026666;28;90541;-74
2023/06/19 06:51:01;;;;;;;;;;;;;;;;;;5026622;28;90622;-68
2023/06/19 06:53:30;;;;;;;;;;;;;;;;;;5024909;27;90394;-74
2023/06/19 06:55:55;;;;;;;;;;;;;;;;;;5022660;28;89827;-73
2023/06/19 06:58:20;;;;;;;;;;;;;;;;;;5026260;27;89687;-67
2023/06/19 07:00:47;;;;;;;;;;;;;;;;;;5025359;27;89264;-66
2023/06/19 07:03:13;;;;;;;;;;;;;;;;;;5022036;28;89244;-67
2023/06/19 07:05:38;;;;;;;;;;;;;;;;;;5026627;28;90667;-67
2023/06/19 07:08:03;;;;;;;;;;;;;;;;;;5025515;27;89841;-68
2023/06/19 07:10:29;;;;;;;;;;;;;;;;;;5026422;27;90699;-66
2023/06/19 07:12:54;;;;;;;;;;;;;;;;;;5020601;28;89199;-67
2023/06/19 07:15:20;;;;;;;;;;;;;;;;;;5024473;28;89181;-66
2023/06/19 07:17:45;;;;;;;;;;;;;;;;;;5026718;28;89890;-66
2023/06/19 07:20:10;;;;;;;;;;;;;;;;;;5038819;27;92166;-65
2023/06/19 07:22:36;;;;;;;;;;;;;;;;;;5022708;27;89583;-66
2023/06/19 07:25:01;;;;;;;;;;;;;;;;;;5024752;28;89886;-65
2023/06/19 07:27:27;;;;;;;;;;;;;;;;;;5029094;27;89565;-66
2023/06/19 07:29:52;;;;;;;;;;;;;;;;;;5026159;27;90690;-66
2023/06/19 07:32:17;;;;;;;;;;;;;;;;;;5022775;28;89684;-65
2023/06/19 07:34:43;;;;;;;;;;;;;;;;;;5025653;28;89766;-65
2023/06/19 07:37:08;;;;;;;;;;;;;;;;;;5027177;28;91139;-67
2023/06/19 07:39:33;;;;;;;;;;;;;;;;;;5024082;28;89987;-70
2023/06/19 07:41:58;;;;;;;;;;;;;;;;;;5026094;27;91338;-67
2023/06/19 07:44:24;;;;;;;;;;;;;;;;;;5024922;28;89746;-68
2023/06/19 07:46:49;;;;;;;;;;;;;;;;;;5023560;28;89911;-66
2023/06/19 07:49:14;;;;;;;;;;;;;;;;;;5027724;27;90801;-66
2023/06/19 07:51:39;;;;;;;;;;;;;;;;;;5024516;28;89282;-68
2023/06/19 07:54:04;;;;;;;;;;;;;;;;;;5025537;28;89156;-67
2023/06/19 07:56:30;;;;;;;;;;;;;;;;;;5023880;28;89736;-67
2023/06/19 07:58:55;;;;;;;;;;;;;;;;;;5024945;28;90437;-70
2023/06/19 08:01:20;;;;;;;;;;;;;;;;;;5024336;28;90331;-73
2023/06/19 08:03:45;;;;;;;;;;;;;;;;;;5024830;28;90127;-71
2023/06/19 08:06:11;;;;;;;;;;;;;;;;;;5021423;28;89732;-73
2023/06/19 08:08:36;;;;;;;;;;;;;;;;;;5024245;28;89614;-73
2023/06/19 08:11:01;;;;;;;;;;;;;;;;;;5025098;28;89812;-73
2023/06/19 08:13:26;;;;;;;;;;;;;;;;;;5023454;28;89147;-72
2023/06/19 08:15:52;;;;;;;;;;;;;;;;;;5025007;28;89816;-72
2023/06/19 08:18:17;;;;;;;;;;;;;;;;;;5025462;28;89583;-72
2023/06/19 08:20:42;;;;;;;;;;;;;;;;;;5021114;27;90391;-72
2023/06/19 08:23:07;;;;;;;;;;;;;;;;;;5019062;28;89691;-73
2023/06/19 08:25:32;;;;;;;;;;;;;;;;;;5021460;28;89362;-73
2023/06/19 08:27:58;;;;;;;;;;;;;;;;;;5022797;28;89044;-73
2023/06/19 08:30:23;;;;;;;;;;;;;;;;;;5024514;28;91012;-72
2023/06/19 08:32:48;;;;;;;;;;;;;;;;;;5026638;28;90679;-73
2023/06/19 08:35:15;;;;;;;;;;;;;;;;;;5023220;27;92280;-73
2023/06/19 08:37:40;;;;;;;;;;;;;;;;;;5016953;27;90842;-73
2023/06/19 08:40:09;;;;;;;;;;;;;;;;;;5021930;28;90132;-73
2023/06/19 08:42:34;;;;;;;;;;;;;;;;;;5025886;27;89667;-73
2023/06/19 08:44:59;;;;;;;;;;;;;;;;;;5024874;28;89404;-73
2023/06/19 08:47:29;;;;;;;;;;;;;;;;;;5025725;28;90559;-73
2023/06/19 08:49:54;;;;;;;;;;;;;;;;;;5024056;27;90564;-73
2023/06/19 08:52:19;;;;;;;;;;;;;;;;;;5019265;28;90567;-73
2023/06/19 08:54:45;;;;;;;;;;;;;;;;;;5026836;28;89628;-73
2023/06/19 08:57:11;;;;;;;;;;;;;;;;;;5020268;27;90491;-73
2023/06/19 08:59:37;;;;;;;;;;;;;;;;;;5020854;28;89632;-73
2023/06/19 09:02:02;;;;;;;;;;;;;;;;;;5022304;28;90004;-73
2023/06/19 09:04:27;;;;;;;;;;;;;;;;;;5022932;27;90427;-73
2023/06/19 09:06:53;;;;;;;;;;;;;;;;;;5023814;27;90171;-73
2023/06/19 09:09:20;;;;;;;;;;;;;;;;;;5024767;28;89713;-73
2023/06/19 09:12:01;;;;;;;;;;;;;;;;;;5023567;28;90420;-73
2023/06/19 09:14:36;;;;;;;;;;;;;;;;;;5020172;28;89789;-73
2023/06/19 09:17:02;;;;;;;;;;;;;;;;;;5024397;28;89648;-73
2023/06/19 09:19:27;;;;;;;;;;;;;;;;;;5025709;28;89346;-73
2023/06/19 09:21:53;;;;;;;;;;;;;;;;;;5019773;28;89738;-73
2023/06/19 09:24:18;;;;;;;;;;;;;;;;;;5024987;28;89442;-73
2023/06/19 09:26:43;;;;;;;;;;;;;;;;;;5022925;27;89461;-73
2023/06/19 09:29:12;;;;;;;;;;;;;;;;;;5023492;28;90648;-73
2023/06/19 09:31:39;;;;;;;;;;;;;;;;;;5021282;28;89663;-73
2023/06/19 09:34:04;;;;;;;;;;;;;;;;;;5022747;27;89624;-73
2023/06/19 09:36:31;;;;;;;;;;;;;;;;;;5022008;27;93404;-73
2023/06/19 09:38:56;;;;;;;;;;;;;;;;;;5018128;28;89387;-73
2023/06/19 09:41:23;;;;;;;;;;;;;;;;;;5022412;28;89689;-73
2023/06/19 09:43:49;;;;;;;;;;;;;;;;;;5022615;27;90576;-73
2023/06/19 09:46:16;;;;;;;;;;;;;;;;;;5023266;28;89117;-73
2023/06/19 09:48:42;;;;;;;;;;;;;;;;;;5027163;27;89637;-73
2023/06/19 09:51:22;;;;;;;;;;;;;;;;;;5026981;28;89792;-73
2023/06/19 09:53:48;;;;;;;;;;;;;;;;;;5022541;28;90172;-73
2023/06/19 09:56:14;;;;;;;;;;;;;;;;;;5024875;27;89709;-73
2023/06/19 09:58:41;;;;;;;;;;;;;;;;;;5027279;28;91884;-73
2023/06/19 10:01:07;;;;;;;;;;;;;;;;;;5024047;28;91176;-73
2023/06/19 10:03:33;;;;;;;;;;;;;;;;;;5025527;28;89596;-73
2023/06/19 10:06:01;;;;;;;;;;;;;;;;;;5027273;28;89115;-73
2023/06/19 10:08:38;;;;;;;;;;;;;;;;;;5026634;27;91567;-73
2023/06/19 10:11:03;;;;;;;;;;;;;;;;;;5025085;28;90355;-73
2023/06/19 10:13:33;;;;;;;;;;;;;;;;;;5024618;28;89842;-73
2023/06/19 10:15:58;;;;;;;;;;;;;;;;;;5027444;27;92403;-73
2023/06/19 10:18:25;;;;;;;;;;;;;;;;;;5024596;28;89305;-73
2023/06/19 10:20:50;;;;;;;;;;;;;;;;;;5027547;28;90025;-74
2023/06/19 10:23:18;;;;;;;;;;;;;;;;;;5020458;28;91942;-73
2023/06/19 10:25:44;;;;;;;;;;;;;;;;;;5023695;27;89091;-73
2023/06/19 10:28:18;;;;;;;;;;;;;;;;;;5026650;28;89675;-74
2023/06/19 10:30:43;;;;;;;;;;;;;;;;;;5026090;28;89414;-73
2023/06/19 10:33:08;;;;;;;;;;;;;;;;;;5022875;28;89961;-73
2023/06/19 10:35:40;;;;;;;;;;;;;;;;;;5024477;28;89762;-73
2023/06/19 10:38:06;;;;;;;;;;;;;;;;;;5026760;27;90174;-73
2023/06/19 10:40:31;;;;;;;;;;;;;;;;;;5025288;27;89184;-73
2023/06/19 10:42:57;;;;;;;;;;;;;;;;;;5029134;28;90701;-69
2023/06/19 10:45:28;;;;;;;;;;;;;;;;;;5027811;28;89743;-75
2023/06/19 10:47:54;;;;;;;;;;;;;;;;;;5022988;28;90251;-73
2023/06/19 10:50:19;;;;;;;;;;;;;;;;;;5025907;27;89720;-71
2023/06/19 10:52:45;;;;;;;;;;;;;;;;;;5022528;28;90779;-74
2023/06/19 10:55:11;;;;;;;;;;;;;;;;;;5023588;27;91473;-72
2023/06/19 10:57:36;;;;;;;;;;;;;;;;;;5027446;27;90112;-75
2023/06/19 11:00:09;;;;;;;;;;;;;;;;;;5025920;28;89793;-74
2023/06/19 11:02:35;;;;;;;;;;;;;;;;;;5020181;27;89755;-73
2023/06/19 11:05:03;;;;;;;;;;;;;;;;;;5029071;27;90025;-74
2023/06/19 11:07:28;;;;;;;;;;;;;;;;;;5019398;28;92496;-74
2023/06/19 11:09:53;;;;;;;;;;;;;;;;;;5019896;28;89305;-73
2023/06/19 11:12:21;;;;;;;;;;;;;;;;;;5025271;28;89189;-74
2023/06/19 11:14:49;;;;;;;;;;;;;;;;;;5025153;27;89755;-74
2023/06/19 11:17:16;;;;;;;;;;;;;;;;;;5025388;27;90027;-75
2023/06/19 11:19:43;;;;;;;;;;;;;;;;;;5025246;28;90308;-77
2023/06/19 11:22:09;;;;;;;;;;;;;;;;;;5024878;27;90807;-76
2023/06/19 11:24:34;;;;;;;;;;;;;;;;;;5028252;28;89591;-74
2023/06/19 11:26:59;;;;;;;;;;;;;;;;;;5025261;28;89135;-74
2023/06/19 11:29:25;;;;;;;;;;;;;;;;;;5026971;27;92010;-74
2023/06/19 11:31:53;;;;;;;;;;;;;;;;;;5026031;28;89687;-75
2023/06/19 11:34:19;;;;;;;;;;;;;;;;;;5021316;27;93382;-72
2023/06/19 11:36:44;;;;;;;;;;;;;;;;;;5022494;28;89260;-73
2023/06/19 11:39:13;;;;;;;;;;;;;;;;;;5022746;28;89956;-75
2023/06/19 11:41:39;;;;;;;;;;;;;;;;;;5020438;28;89747;-72
2023/06/19 11:44:06;;;;;;;;;;;;;;;;;;5024138;27;89763;-74
2023/06/19 11:46:32;;;;;;;;;;;;;;;;;;5026647;27;89772;-75
2023/06/19 11:49:09;;;;;;;;;;;;;;;;;;5029879;27;90772;-77
2023/06/19 11:51:35;;;;;;;;;;;;;;;;;;5025564;28;89300;-75
2023/06/19 11:54:00;;;;;;;;;;;;;;;;;;5026137;27;90833;-77
2023/06/19 11:56:25;;;;;;;;;;;;;;;;;;5023184;28;90516;-73
2023/06/19 11:58:50;;;;;;;;;;;;;;;;;;5026545;28;90420;-74
2023/06/19 12:01:16;;;;;;;;;;;;;;;;;;5024221;28;92558;-76
2023/06/19 12:03:41;;;;;;;;;;;;;;;;;;5025962;28;89706;-74
2023/06/19 12:06:06;;;;;;;;;;;;;;;;;;5024367;28;89027;-74
2023/06/19 12:08:32;;;;;;;;;;;;;;;;;;5028640;28;89566;-74
2023/06/19 12:10:57;;;;;;;;;;;;;;;;;;5023663;28;90539;-74
2023/06/19 12:13:22;;;;;;;;;;;;;;;;;;5026157;28;89779;-75
2023/06/19 12:15:47;;;;;;;;;;;;;;;;;;5025620;28;89299;-76
2023/06/19 12:18:13;;;;;;;;;;;;;;;;;;5026212;28;89432;-76
2023/06/19 12:20:39;;;;;;;;;;;;;;;;;;5024536;27;91395;-74
2023/06/19 12:23:04;;;;;;;;;;;;;;;;;;5024073;27;91792;-74
2023/06/19 12:25:29;;;;;;;;;;;;;;;;;;5022362;28;89613;-74
2023/06/19 12:27:54;;;;;;;;;;;;;;;;;;5022411;28;89933;-76
2023/06/19 12:30:20;;;;;;;;;;;;;;;;;;5023427;28;89574;-76
2023/06/19 12:32:49;;;;;;;;;;;;;;;;;;5022957;28;90385;-74
2023/06/19 12:35:14;;;;;;;;;;;;;;;;;;5023541;28;89605;-76
2023/06/19 12:37:40;;;;;;;;;;;;;;;;;;5023397;28;89590;-74
2023/06/19 12:40:09;;;;;;;;;;;;;;;;;;5024231;28;90539;-75
2023/06/19 12:42:35;;;;;;;;;;;;;;;;;;5025745;28;89148;-76
2023/06/19 12:45:01;;;;;;;;;;;;;;;;;;5018391;28;90992;-75
2023/06/19 12:47:26;;;;;;;;;;;;;;;;;;5021335;28;89603;-73
2023/06/19 12:49:51;;;;;;;;;;;;;;;;;;5026009;27;89297;-74
2023/06/19 12:52:17;;;;;;;;;;;;;;;;;;5025808;28;90864;-73
2023/06/19 12:54:42;;;;;;;;;;;;;;;;;;5021967;27;89685;-73
2023/06/19 12:57:07;;;;;;;;;;;;;;;;;;5024207;28;89168;-73
2023/06/19 12:59:32;;;;;;;;;;;;;;;;;;5022863;28;89767;-76
2023/06/19 13:01:59;;;;;;;;;;;;;;;;;;5020853;27;91026;-73
2023/06/19 13:04:24;;;;;;;;;;;;;;;;;;5024056;27;89828;-73
2023/06/19 13:06:49;;;;;;;;;;;;;;;;;;5024024;28;89542;-72
2023/06/19 13:09:15;;;;;;;;;;;;;;;;;;5020155;28;89547;-79
2023/06/19 13:11:40;;;;;;;;;;;;;;;;;;5021465;27;91334;-76
2023/06/19 13:14:05;;;;;;;;;;;;;;;;;;5026140;28;90158;-78
2023/06/19 13:16:31;;;;;;;;;;;;;;;;;;5019229;28;89845;-75
2023/06/19 13:18:56;;;;;;;;;;;;;;;;;;5022815;28;89748;-75
2023/06/19 13:21:21;;;;;;;;;;;;;;;;;;5022667;28;90778;-75
2023/06/19 13:23:48;;;;;;;;;;;;;;;;;;5021234;28;89623;-68
2023/06/19 13:26:14;;;;;;;;;;;;;;;;;;5022099;28;90112;-69
2023/06/19 13:28:39;;;;;;;;;;;;;;;;;;5020680;27;89532;-69
2023/06/19 13:31:05;;;;;;;;;;;;;;;;;;5020135;28;89723;-70
2023/06/19 13:33:30;;;;;;;;;;;;;;;;;;5025647;28;90558;-71
2023/06/19 13:35:55;;;;;;;;;;;;;;;;;;5017689;28;90563;-75
2023/06/19 13:38:21;;;;;;;;;;;;;;;;;;5021115;28;89647;-76
2023/06/19 13:40:46;;;;;;;;;;;;;;;;;;5020557;27;89778;-75
2023/06/19 13:43:11;;;;;;;;;;;;;;;;;;5023348;28;90638;-74
2023/06/19 13:45:38;;;;;;;;;;;;;;;;;;5023124;28;92060;-75
2023/06/19 13:48:04;;;;;;;;;;;;;;;;;;5019502;28;92029;-74
2023/06/19 13:50:29;;;;;;;;;;;;;;;;;;5023793;27;89637;-74
2023/06/19 13:52:54;;;;;;;;;;;;;;;;;;5020439;28;91088;-72
2023/06/19 13:55:19;;;;;;;;;;;;;;;;;;5024149;28;89748;-74
2023/06/19 13:57:45;;;;;;;;;;;;;;;;;;5016901;28;92535;-76
2023/06/19 14:00:10;;;;;;;;;;;;;;;;;;5022908;28;90649;-73
2023/06/19 14:02:40;;;;;;;;;;;;;;;;;;5017022;28;89559;-77
2023/06/19 14:05:06;;;;;;;;;;;;;;;;;;5024004;28;90743;-77
2023/06/19 14:07:31;;;;;;;;;;;;;;;;;;5019635;27;89436;-73
2023/06/19 14:09:57;;;;;;;;;;;;;;;;;;5021045;27;89425;-76
2023/06/19 14:12:22;;;;;;;;;;;;;;;;;;5023497;28;90038;-77
2023/06/19 14:14:47;;;;;;;;;;;;;;;;;;5021474;28;89402;-74
2023/06/19 14:17:13;;;;;;;;;;;;;;;;;;5025947;28;90308;-75
2023/06/19 14:19:38;;;;;;;;;;;;;;;;;;5020870;28;90237;-77
2023/06/19 14:22:04;;;;;;;;;;;;;;;;;;5023505;28;89781;-75
2023/06/19 14:24:29;;;;;;;;;;;;;;;;;;5020389;28;93858;-74
2023/06/19 14:26:54;;;;;;;;;;;;;;;;;;5021665;28;90354;-75
2023/06/19 14:29:20;;;;;;;;;;;;;;;;;;5021976;28;90658;-75
2023/06/19 14:31:46;;;;;;;;;;;;;;;;;;5021533;27;91038;-76
2023/06/19 14:34:11;;;;;;;;;;;;;;;;;;5021481;28;90637;-75
2023/06/19 14:36:39;;;;;;;;;;;;;;;;;;5024517;28;89558;-76
2023/06/19 14:39:04;;;;;;;;;;;;;;;;;;5027660;28;89863;-73
2023/06/19 14:41:29;;;;;;;;;;;;;;;;;;5024383;28;90845;-74
2023/06/19 14:43:55;;;;;;;;;;;;;;;;;;5023402;28;90036;-74
2023/06/19 14:46:20;;;;;;;;;;;;;;;;;;5024593;28;90444;-74
2023/06/19 14:48:45;;;;;;;;;;;;;;;;;;5026640;28;89515;-75
2023/06/19 14:51:11;;;;;;;;;;;;;;;;;;5022918;28;89993;-75
2023/06/19 14:53:36;;;;;;;;;;;;;;;;;;5022564;28;90071;-74
2023/06/19 14:56:02;;;;;;;;;;;;;;;;;;5024892;27;89155;-74
2023/06/19 14:58:28;;;;;;;;;;;;;;;;;;5024332;28;89840;-74
2023/06/19 15:00:53;;;;;;;;;;;;;;;;;;5026640;27;89613;-74
2023/06/19 15:03:19;;;;;;;;;;;;;;;;;;5024782;28;89221;-74
2023/06/19 15:05:44;;;;;;;;;;;;;;;;;;5024474;28;89353;-74
2023/06/19 15:08:10;;;;;;;;;;;;;;;;;;5026454;28;89991;-76
2023/06/19 15:10:36;;;;;;;;;;;;;;;;;;5024700;27;89655;-74
2023/06/19 15:13:02;;;;;;;;;;;;;;;;;;5022513;27;89848;-76
2023/06/19 15:15:27;;;;;;;;;;;;;;;;;;5026208;28;89940;-74
2023/06/19 15:17:52;;;;;;;;;;;;;;;;;;5021700;28;91055;-75
2023/06/19 15:20:18;;;;;;;;;;;;;;;;;;5024351;28;89677;-74
2023/06/19 15:22:43;;;;;;;;;;;;;;;;;;5027622;27;89656;-74
2023/06/19 15:25:09;;;;;;;;;;;;;;;;;;5019997;27;89616;-74
2023/06/19 15:27:34;;;;;;;;;;;;;;;;;;5026810;28;89564;-75
2023/06/19 15:29:59;;;;;;;;;;;;;;;;;;5019396;28;90112;-74
2023/06/19 15:32:25;;;;;;;;;;;;;;;;;;5024894;28;89265;-74
2023/06/19 15:34:50;;;;;;;;;;;;;;;;;;5019939;28;89846;-74
2023/06/19 15:37:15;;;;;;;;;;;;;;;;;;5016954;28;92000;-75
2023/06/19 15:39:41;;;;;;;;;;;;;;;;;;5023858;28;90121;-72
2023/06/19 15:42:06;;;;;;;;;;;;;;;;;;5027142;28;89648;-77
2023/06/19 15:44:32;;;;;;;;;;;;;;;;;;5022908;28;89676;-78
2023/06/19 15:46:57;;;;;;;;;;;;;;;;;;5024512;27;89041;-75
2023/06/19 15:49:22;;;;;;;;;;;;;;;;;;5025012;28;89880;-74
2023/06/19 15:51:47;;;;;;;;;;;;;;;;;;5025619;28;89575;-74
2023/06/19 15:54:12;;;;;;;;;;;;;;;;;;5024273;28;89010;-75
2023/06/19 15:56:39;;;;;;;;;;;;;;;;;;5022877;28;89694;-74
2023/06/19 15:59:04;;;;;;;;;;;;;;;;;;5019986;28;89579;-74
2023/06/19 16:01:29;;;;;;;;;;;;;;;;;;5025617;28;89908;-74
2023/06/19 16:03:54;;;;;;;;;;;;;;;;;;5025419;28;89121;-75
2023/06/19 16:06:19;;;;;;;;;;;;;;;;;;5020488;28;89353;-75
2023/06/19 16:08:45;;;;;;;;;;;;;;;;;;5024011;27;89303;-74
2023/06/19 16:11:10;;;;;;;;;;;;;;;;;;5025562;27;90520;-74
2023/06/19 16:13:35;;;;;;;;;;;;;;;;;;5022550;27;90001;-74
2023/06/19 16:16:01;;;;;;;;;;;;;;;;;;5022094;28;92347;-75
2023/06/19 16:18:26;;;;;;;;;;;;;;;;;;5025732;28;89621;-75
2023/06/19 16:20:51;;;;;;;;;;;;;;;;;;5022367;28;89032;-74
2023/06/19 16:23:16;;;;;;;;;;;;;;;;;;5018437;28;89654;-74
2023/06/19 16:25:42;;;;;;;;;;;;;;;;;;5027747;28;89747;-73
2023/06/19 16:28:07;;;;;;;;;;;;;;;;;;5023498;28;89668;-74
2023/06/19 16:30:33;;;;;;;;;;;;;;;;;;5020110;28;90796;-71
2023/06/19 16:32:58;;;;;;;;;;;;;;;;;;5025106;27;89153;-74
2023/06/19 16:35:23;;;;;;;;;;;;;;;;;;5022782;28;89582;-71